Time;durP1;ratioP1;P1;durP2;ratioP2;P2;SDS_P1;SDS_P2;PMS_P1;PMS_P2;Temp;Humidity;BMP_temperature;BMP_pressure;BME280_temperature;BME280_humidity;BME280_pressure;Samples;Min_cycle;Max_cycle;Signal;HPM_P1;HPM_P2
2021/06/07 00:00:18;;;;;;;;;9.00;9.00;;;;;20.04;100.00;102106.66;5078175;27;47155;-65
2021/06/07 00:02:43;;;;;;;;;7.25;6.25;;;;;19.98;100.00;102112.19;5077096;28;45329;-66
2021/06/07 00:05:09;;;;;;;;;11.25;9.50;;;;;19.94;100.00;102111.41;5078323;27;45710;-65
2021/06/07 00:07:35;;;;;;;;;8.00;7.00;;;;;19.89;100.00;102103.56;5078373;27;45241;-66
2021/06/07 00:10:01;;;;;;;;;7.25;6.75;;;;;19.89;100.00;102111.53;5078160;27;45498;-66
2021/06/07 00:12:26;;;;;;;;;8.25;8.00;;;;;19.83;100.00;102102.91;5077875;27;45410;-66
2021/06/07 00:14:52;;;;;;;;;8.00;8.00;;;;;19.82;100.00;102110.00;5076810;28;45965;-66
2021/06/07 00:17:17;;;;;;;;;9.25;8.00;;;;;19.78;100.00;102110.13;5078467;27;45362;-66
2021/06/07 00:19:43;;;;;;;;;10.00;8.50;;;;;19.78;100.00;102099.53;5077886;27;46441;-65
2021/06/07 00:25:30;;;;;;;;;6.00;6.00;;;;;19.69;100.00;102102.44;5077989;28;45357;-65
2021/06/07 00:27:56;;;;;;;;;6.25;5.00;;;;;19.64;100.00;102102.59;5078016;27;45378;-65
2021/06/07 00:30:21;;;;;;;;;8.50;7.75;;;;;19.57;100.00;102091.31;5077668;28;47406;-66
2021/06/07 00:32:47;;;;;;;;;9.25;8.00;;;;;19.59;100.00;102093.94;5075904;28;46064;-65
2021/06/07 00:35:18;;;;;;;;;7.00;7.00;;;;;19.61;100.00;102093.88;5077750;27;45363;-65
2021/06/07 00:37:43;;;;;;;;;9.75;8.00;;;;;19.52;100.00;102087.91;5077759;27;45538;-65
2021/06/07 00:40:12;;;;;;;;;10.00;10.00;;;;;19.52;100.00;102090.56;5077908;27;45239;-65
2021/06/07 00:42:37;;;;;;;;;8.25;7.00;;;;;19.50;100.00;102097.69;5077579;27;45658;-65
2021/06/07 00:45:07;;;;;;;;;11.00;8.00;;;;;19.29;100.00;102069.19;5077459;27;45797;-65
2021/06/07 00:47:33;;;;;;;;;10.00;7.00;;;;;19.40;100.00;102098.00;5077984;27;45256;-65
2021/06/07 00:49:58;;;;;;;;;7.50;7.50;;;;;19.42;100.00;102093.53;5077403;27;46304;-66
2021/06/07 00:55:50;;;;;;;;;10.00;8.75;;;;;19.27;100.00;102093.06;5077504;28;45339;-66
2021/06/07 00:58:18;;;;;;;;;8.25;8.25;;;;;19.25;100.00;102099.31;5077885;27;45352;-65
2021/06/07 01:00:44;;;;;;;;;9.00;8.00;;;;;19.10;100.00;102079.44;5077478;28;45411;-64
2021/06/07 01:03:11;;;;;;;;;8.00;8.00;;;;;19.09;100.00;102080.34;5077472;27;45605;-66
2021/06/07 01:05:37;;;;;;;;;10.00;8.00;;;;;19.05;100.00;102086.66;5077376;27;45252;-65
2021/06/07 01:08:04;;;;;;;;;8.25;8.00;;;;;19.01;100.00;102079.72;5077589;27;45435;-65
2021/06/07 01:10:30;;;;;;;;;8.00;7.00;;;;;19.02;100.00;102092.03;5077417;27;45615;-65
2021/06/07 01:12:56;;;;;;;;;8.00;8.00;;;;;18.97;100.00;102086.84;5077437;27;45623;-65
2021/06/07 01:15:22;;;;;;;;;7.75;7.50;;;;;18.96;100.00;102086.88;5077246;27;45433;-66
2021/06/07 01:17:48;;;;;;;;;9.25;8.75;;;;;18.88;100.00;102079.16;5077318;27;45434;-65
2021/06/07 01:26:40;;;;;;;;;10.50;10.00;;;;;18.80;100.00;102086.47;5077119;28;45393;-66
2021/06/07 01:29:06;;;;;;;;;9.75;9.00;;;;;18.76;100.00;102081.25;5077323;27;45384;-66
2021/06/07 01:31:32;;;;;;;;;13.25;11.75;;;;;18.70;100.00;102077.00;5076817;27;46909;-64
2021/06/07 01:33:57;;;;;;;;;9.50;8.75;;;;;18.65;100.00;102071.84;5076890;27;45714;-66
2021/06/07 01:36:23;;;;;;;;;9.00;8.00;;;;;18.61;100.00;102079.88;5077173;27;45335;-65
2021/06/07 01:38:49;;;;;;;;;7.50;6.75;;;;;18.63;100.00;102080.72;5077308;27;45308;-65
2021/06/07 01:41:18;;;;;;;;;9.75;9.00;;;;;18.61;100.00;102075.44;5076979;27;46557;-65
2021/06/07 01:43:45;;;;;;;;;8.00;7.00;;;;;18.59;100.00;102077.28;5075523;28;45446;-65
2021/06/07 01:46:10;;;;;;;;;8.00;8.00;;;;;18.61;100.00;102077.22;5080083;27;45429;-65
2021/06/07 01:48:36;;;;;;;;;9.25;8.00;;;;;18.60;100.00;102078.13;5080808;27;45436;-66
2021/06/07 01:51:05;;;;;;;;;10.50;9.00;;;;;18.44;100.00;102055.63;5080474;27;46560;-66
2021/06/07 01:53:31;;;;;;;;;9.00;8.00;;;;;18.59;100.00;102085.22;5080652;27;45464;-66
2021/06/07 01:56:02;;;;;;;;;9.00;8.25;;;;;18.58;100.00;102085.25;5080248;27;45277;-66
2021/06/07 01:58:28;;;;;;;;;9.50;8.75;;;;;18.57;100.00;102087.03;5080483;27;45398;-66
2021/06/07 02:00:57;;;;;;;;;11.00;9.50;;;;;18.56;100.00;102082.66;5080116;27;46333;-66
2021/06/07 02:03:24;;;;;;;;;9.00;8.25;;;;;18.54;100.00;102092.38;5080055;27;45279;-67
2021/06/07 02:05:54;;;;;;;;;8.75;8.75;;;;;18.52;100.00;102086.25;5080215;27;45265;-66
2021/06/07 02:08:20;;;;;;;;;10.00;9.00;;;;;18.45;100.00;102078.53;5080228;27;45655;-65
2021/06/07 02:10:54;;;;;;;;;14.50;10.50;;;;;18.49;100.00;102088.13;5079852;27;45352;-66
2021/06/07 02:13:22;;;;;;;;;9.00;8.25;;;;;18.40;100.00;102085.72;5079875;27;45273;-66
2021/06/07 02:16:08;;;;;;;;;9.50;9.00;;;;;18.43;100.00;102091.78;5080038;27;45325;-66
2021/06/07 02:18:36;;;;;;;;;10.00;9.00;;;;;18.41;100.00;102095.38;5080102;27;45561;-66
2021/06/07 02:21:07;;;;;;;;;8.00;8.00;;;;;18.38;100.00;102084.88;5078529;28;47196;-66
2021/06/07 02:23:32;;;;;;;;;10.25;9.25;;;;;18.34;100.00;102087.63;5079696;27;45245;-65
2021/06/07 02:25:58;;;;;;;;;8.50;8.50;;;;;18.32;100.00;102085.88;5078633;28;45289;-65
2021/06/07 02:28:24;;;;;;;;;8.75;8.00;;;;;18.29;100.00;102081.53;5079899;27;45607;-65
2021/06/07 02:30:50;;;;;;;;;9.00;8.50;;;;;18.23;100.00;102071.13;5079821;28;45793;-67
2021/06/07 02:33:16;;;;;;;;;11.00;10.25;;;;;18.28;100.00;102089.50;5079645;27;45874;-66
2021/06/07 02:35:42;;;;;;;;;9.50;9.50;;;;;18.26;100.00;102089.56;5079677;27;45438;-66
2021/06/07 02:38:09;;;;;;;;;11.75;11.00;;;;;18.22;100.00;102087.03;5079771;27;45346;-66
2021/06/07 02:40:35;;;;;;;;;9.75;9.25;;;;;18.22;100.00;102090.53;5079659;27;45526;-66
2021/06/07 02:43:01;;;;;;;;;13.75;12.00;;;;;18.15;100.00;102088.97;5079412;27;45379;-64
2021/06/07 02:45:30;;;;;;;;;13.00;12.25;;;;;18.16;100.00;102082.78;5079455;27;45536;-65
2021/06/07 02:47:58;;;;;;;;;10.25;10.00;;;;;18.16;100.00;102087.19;5079893;27;45392;-66
2021/06/07 02:50:27;;;;;;;;;12.00;12.00;;;;;17.99;100.00;102074.38;5079506;27;46659;-66
2021/06/07 02:52:53;;;;;;;;;11.25;11.00;;;;;18.13;100.00;102081.97;5079590;27;45541;-66
2021/06/07 02:55:22;;;;;;;;;26.00;20.00;;;;;18.01;100.00;102073.41;5079191;27;45241;-65
2021/06/07 02:57:49;;;;;;;;;18.00;15.75;;;;;18.07;100.00;102090.91;5079363;27;45599;-65
2021/06/07 03:00:43;;;;;;;;;12.00;11.25;;;;;18.02;100.00;102083.09;5079061;27;47111;-65
2021/06/07 03:03:09;;;;;;;;;12.00;12.00;;;;;17.97;100.00;102092.91;5073935;28;45663;-66
2021/06/07 03:05:36;;;;;;;;;13.25;11.75;;;;;17.89;100.00;102073.72;5079293;27;45338;-66
2021/06/07 03:08:03;;;;;;;;;14.50;13.25;;;;;17.97;100.00;102100.84;5079307;27;45557;-66
2021/06/07 03:10:29;;;;;;;;;10.00;10.00;;;;;17.99;100.00;102104.31;5078834;27;46501;-66
2021/06/07 03:12:54;;;;;;;;;12.00;11.25;;;;;17.91;100.00;102093.06;5079057;27;45270;-65
2021/06/07 03:15:23;;;;;;;;;13.25;11.75;;;;;17.90;100.00;102087.81;5079042;27;45437;-67
2021/06/07 03:17:50;;;;;;;;;10.50;10.50;;;;;17.92;100.00;102097.44;5079256;27;45327;-66
2021/06/07 03:20:17;;;;;;;;;11.00;10.75;;;;;17.90;100.00;102091.31;5079174;27;46617;-65
2021/06/07 03:22:43;;;;;;;;;11.75;11.25;;;;;17.89;100.00;102094.88;5079127;27;45690;-66
2021/06/07 03:25:09;;;;;;;;;15.00;13.75;;;;;17.89;100.00;102094.00;5079165;27;45244;-66
2021/06/07 03:27:37;;;;;;;;;12.00;11.50;;;;;17.87;100.00;102095.78;5079351;27;45234;-65
2021/06/07 03:30:05;;;;;;;;;15.50;12.00;;;;;17.84;100.00;102094.06;5078584;27;47290;-66
2021/06/07 03:32:31;;;;;;;;;10.00;10.00;;;;;17.79;100.00;102084.53;5079000;27;45423;-65
2021/06/07 03:34:56;;;;;;;;;11.50;11.00;;;;;17.76;100.00;102082.81;5079134;27;45283;-65
2021/06/07 03:37:21;;;;;;;;;48.00;37.75;;;;;17.73;100.00;102080.25;5078761;27;45252;-66
2021/06/07 03:39:48;;;;;;;;;24.50;21.25;;;;;17.69;100.00;102081.22;5078661;27;45342;-65
2021/06/07 03:42:13;;;;;;;;;12.75;12.00;;;;;17.77;100.00;102092.50;5078513;27;45585;-66
2021/06/07 03:44:42;;;;;;;;;12.25;11.25;;;;;17.70;100.00;102082.97;5078369;27;45336;-65
2021/06/07 03:47:07;;;;;;;;;12.00;10.00;;;;;17.68;100.00;102075.09;5078665;27;45253;-65
2021/06/07 03:49:33;;;;;;;;;11.75;10.00;;;;;17.63;100.00;102074.25;5078214;27;46305;-65
2021/06/07 03:51:58;;;;;;;;;10.00;9.50;;;;;17.68;100.00;102085.66;5078271;27;45330;-66
2021/06/07 03:54:23;;;;;;;;;12.75;10.25;;;;;17.68;100.00;102082.13;5078382;27;45310;-65
2021/06/07 03:56:49;;;;;;;;;10.50;9.00;;;;;17.65;100.00;102082.16;5078546;27;45431;-65
2021/06/07 03:59:14;;;;;;;;;10.50;10.50;;;;;17.64;100.00;102078.63;5078121;27;47628;-65
2021/06/07 04:01:40;;;;;;;;;10.50;10.25;;;;;17.67;100.00;102089.19;5078186;27;45443;-65
2021/06/07 04:04:06;;;;;;;;;10.00;10.00;;;;;17.64;100.00;102086.56;5078361;27;45383;-65
2021/06/07 04:06:31;;;;;;;;;9.00;8.25;;;;;17.61;100.00;102077.84;5078230;27;45157;-65
2021/06/07 04:09:01;;;;;;;;;12.25;10.00;;;;;17.62;100.00;102079.56;5077725;27;45327;-65
2021/06/07 04:11:26;;;;;;;;;10.50;10.00;;;;;17.65;100.00;102080.41;5078140;27;45664;-65
2021/06/07 04:13:52;;;;;;;;;11.50;10.25;;;;;17.64;100.00;102080.41;5078079;27;45450;-66
2021/06/07 04:16:17;;;;;;;;;10.25;9.75;;;;;17.56;100.00;102069.16;5078257;27;45403;-66
2021/06/07 04:18:43;;;;;;;;;14.00;10.50;;;;;17.63;100.00;102074.25;5078087;28;46303;-66
2021/06/07 04:21:09;;;;;;;;;11.25;10.00;;;;;17.63;100.00;102070.75;5077836;27;45397;-68
2021/06/07 04:26:56;;;;;;;;;9.00;8.00;;;;;17.64;100.00;102076.00;5078080;28;45391;-66
2021/06/07 04:29:21;;;;;;;;;10.50;9.00;;;;;17.62;100.00;102071.66;5077675;27;47168;-66
2021/06/07 04:31:47;;;;;;;;;12.00;9.25;;;;;17.66;100.00;102074.22;5078109;27;45394;-65
2021/06/07 04:34:15;;;;;;;;;11.00;10.00;;;;;17.64;100.00;102072.50;5078009;27;45365;-66
2021/06/07 04:36:40;;;;;;;;;9.50;8.50;;;;;17.65;100.00;102074.22;5077843;27;45596;-66
2021/06/07 04:39:06;;;;;;;;;8.50;8.25;;;;;17.68;100.00;102076.84;5077731;27;45346;-66
2021/06/07 04:41:32;;;;;;;;;11.50;10.00;;;;;17.70;100.00;102080.34;5077882;28;45260;-66
2021/06/07 04:44:00;;;;;;;;;9.25;9.25;;;;;17.68;100.00;102074.22;5077309;27;45371;-66
2021/06/07 04:46:26;;;;;;;;;11.00;11.00;;;;;17.75;100.00;102087.25;5077457;27;45509;-64
2021/06/07 04:48:51;;;;;;;;;10.00;9.50;;;;;17.74;100.00;102079.34;5077279;27;46925;-64
2021/06/07 04:51:16;;;;;;;;;11.25;9.50;;;;;17.72;100.00;102066.19;5077169;27;45458;-64
2021/06/07 04:57:04;;;;;;;;;12.25;9.75;;;;;17.87;100.00;102085.22;5077256;28;45459;-63
2021/06/07 04:59:29;;;;;;;;;12.75;12.00;;;;;17.81;100.00;102065.09;5075577;28;46760;-63
2021/06/07 05:01:55;;;;;;;;;11.75;10.25;;;;;17.85;100.00;102061.47;5077373;27;45209;-64
2021/06/07 05:04:20;;;;;;;;;13.50;13.00;;;;;17.94;100.00;102082.41;5077535;27;45439;-64
2021/06/07 05:06:46;;;;;;;;;10.50;10.25;;;;;17.97;100.00;102076.19;5077564;27;45428;-64
2021/06/07 05:09:14;;;;;;;;;13.00;12.00;;;;;17.94;100.00;102079.78;5076969;27;47079;-64
2021/06/07 05:11:41;;;;;;;;;11.50;10.25;;;;;18.01;100.00;102075.19;5077089;27;45304;-65
2021/06/07 05:14:07;;;;;;;;;10.50;10.00;;;;;18.05;100.00;102079.50;5077093;27;45266;-65
2021/06/07 05:16:33;;;;;;;;;13.50;11.50;;;;;18.09;100.00;102080.28;5077080;27;45486;-64
2021/06/07 05:18:58;;;;;;;;;10.00;9.75;;;;;18.09;100.00;102075.00;5078317;27;46282;-64
2021/06/07 05:21:24;;;;;;;;;10.50;9.50;;;;;18.05;100.00;102075.09;5080795;27;45422;-65
2021/06/07 05:27:11;;;;;;;;;10.25;10.00;;;;;18.14;100.00;102063.44;5080563;28;45260;-64
2021/06/07 05:29:36;;;;;;;;;11.75;10.00;;;;;18.24;100.00;102086.09;5080578;27;45329;-63
2021/06/07 05:32:02;;;;;;;;;10.00;9.75;;;;;18.28;100.00;102084.22;5080521;27;45247;-64
2021/06/07 05:34:27;;;;;;;;;14.75;12.25;;;;;18.26;100.00;102075.47;5080480;27;45328;-64
2021/06/07 05:36:52;;;;;;;;;16.00;11.00;;;;;18.32;100.00;102081.47;5080353;27;45346;-65
2021/06/07 05:39:19;;;;;;;;;11.75;11.00;;;;;18.37;100.00;102086.66;5080209;27;47035;-65
2021/06/07 05:41:48;;;;;;;;;10.00;9.00;;;;;18.39;100.00;102087.50;5080259;27;45693;-65
2021/06/07 05:44:14;;;;;;;;;13.50;12.75;;;;;18.47;100.00;102092.56;5080234;27;45379;-65
2021/06/07 05:46:39;;;;;;;;;13.25;12.50;;;;;18.49;100.00;102088.13;5080100;27;45494;-65
2021/06/07 05:49:05;;;;;;;;;15.50;10.75;;;;;18.51;100.00;102092.44;5079914;27;45975;-64
2021/06/07 05:51:30;;;;;;;;;11.00;11.00;;;;;18.55;100.00;102085.31;5079996;27;45341;-67
2021/06/07 05:57:17;;;;;;;;;14.00;11.25;;;;;18.65;100.00;102087.72;5080193;28;45391;-65
2021/06/07 05:59:43;;;;;;;;;13.25;12.00;;;;;18.70;100.00;102087.59;5079770;27;46580;-65
2021/06/07 06:02:10;;;;;;;;;15.00;12.00;;;;;18.78;100.00;102098.81;5079717;27;45422;-65
2021/06/07 06:04:36;;;;;;;;;13.00;12.00;;;;;18.76;100.00;102081.25;5079862;27;45346;-65
2021/06/07 06:07:04;;;;;;;;;13.00;12.00;;;;;18.66;100.00;102052.41;5080051;27;45373;-64
2021/06/07 06:09:30;;;;;;;;;13.75;11.50;;;;;18.89;100.00;102085.31;5079504;27;47560;-65
2021/06/07 06:11:57;;;;;;;;;14.25;13.00;;;;;19.01;100.00;102100.88;5079662;27;45345;-66
2021/06/07 06:14:24;;;;;;;;;13.00;12.00;;;;;18.98;100.00;102087.72;5079837;27;45438;-65
2021/06/07 06:16:49;;;;;;;;;12.75;12.75;;;;;18.99;100.00;102084.16;5079628;27;45480;-65
2021/06/07 06:19:15;;;;;;;;;14.25;13.00;;;;;19.08;100.00;102094.50;5079652;27;45653;-66
2021/06/07 06:21:40;;;;;;;;;14.50;10.75;;;;;19.17;100.00;102094.22;5078107;28;45395;-66
2021/06/07 06:27:28;;;;;;;;;9.75;9.25;;;;;19.24;100.00;102098.47;5079650;28;45335;-65
2021/06/07 06:29:53;;;;;;;;;11.00;10.50;;;;;19.25;100.00;102094.91;5077674;28;45384;-65
2021/06/07 06:32:19;;;;;;;;;9.25;9.00;;;;;19.32;100.00;102103.53;5079190;27;45488;-65
2021/06/07 06:34:46;;;;;;;;;13.00;11.25;;;;;19.31;100.00;102091.19;5079509;27;45378;-65
2021/06/07 06:37:11;;;;;;;;;11.50;11.25;;;;;19.39;100.00;102104.22;5079296;27;45450;-65
2021/06/07 06:39:40;;;;;;;;;13.50;12.00;;;;;19.33;100.00;102099.09;5078933;27;45496;-65
2021/06/07 06:42:09;;;;;;;;;15.75;13.50;;;;;19.27;100.00;102082.47;5079143;27;45546;-65
2021/06/07 06:44:34;;;;;;;;;19.00;16.75;;;;;19.43;100.00;102109.38;5079061;27;45423;-65
2021/06/07 06:47:00;;;;;;;;;16.75;15.50;;;;;19.46;100.00;102098.72;5079585;28;45489;-64
2021/06/07 06:49:25;;;;;;;;;13.50;12.50;;;;;19.51;100.00;102107.38;5078881;27;46598;-65
2021/06/07 06:51:51;;;;;;;;;14.75;12.25;;;;;19.55;100.00;102102.88;5079005;27;45234;-65
2021/06/07 06:57:38;;;;;;;;;11.50;11.50;;;;;19.63;100.00;102097.34;5079184;28;45360;-67
2021/06/07 07:00:06;;;;;;;;;13.50;11.25;;;;;19.56;100.00;102080.78;5078919;27;46429;-65
2021/06/07 07:02:32;;;;;;;;;18.00;13.50;;;;;19.70;100.00;102093.63;5078970;27;45569;-66
2021/06/07 07:04:58;;;;;;;;;11.50;11.00;;;;;19.82;100.00;102102.03;5078688;27;45304;-66
2021/06/07 07:07:23;;;;;;;;;14.00;10.75;;;;;19.84;100.00;102102.00;5077831;28;45444;-65
2021/06/07 07:09:51;;;;;;;;;17.50;14.50;;;;;19.88;100.00;102098.31;5078690;27;46113;-65
2021/06/07 07:12:17;;;;;;;;;14.25;13.00;;;;;19.95;100.00;102099.88;5078778;27;45541;-66
2021/06/07 07:14:42;;;;;;;;;10.00;9.00;;;;;19.97;100.00;102089.22;5078639;27;45890;-65
2021/06/07 07:17:08;;;;;;;;;12.25;11.25;;;;;20.07;100.00;102103.91;5078660;27;45410;-66
2021/06/07 07:19:44;;;;;;;;;14.00;11.50;;;;;20.10;100.00;102099.38;5078631;27;45462;-66
2021/06/07 07:22:10;;;;;;;;;13.00;11.00;;;;;20.15;100.00;102107.22;5078618;27;45355;-65
2021/06/07 07:24:35;;;;;;;;;14.25;10.75;;;;;20.19;100.00;102114.16;5078925;27;45458;-65
2021/06/07 07:27:01;;;;;;;;;8.75;8.75;;;;;20.15;100.00;102080.69;5079033;28;45477;-65
2021/06/07 07:29:27;;;;;;;;;12.00;12.00;;;;;20.23;100.00;102093.69;5078265;27;46943;-66
2021/06/07 07:31:52;;;;;;;;;9.25;9.00;;;;;20.33;100.00;102098.63;5078682;27;45323;-66
2021/06/07 07:34:18;;;;;;;;;13.25;10.50;;;;;20.41;100.00;102098.44;5078568;28;45293;-65
2021/06/07 07:36:43;;;;;;;;;9.75;9.00;;;;;20.47;100.00;102099.06;5078688;27;45291;-65
2021/06/07 07:42:31;;;;;;;;;10.00;9.25;;;;;20.61;100.00;102095.09;5078173;28;45649;-66
2021/06/07 07:44:56;;;;;;;;;12.00;10.25;;;;;20.60;100.00;102083.63;5078219;27;45363;-66
2021/06/07 07:47:22;;;;;;;;;13.50;9.75;;;;;20.72;100.00;102095.59;5078320;27;45222;-66
2021/06/07 07:49:47;;;;;;;;;12.00;9.75;;;;;20.73;100.00;102097.31;5078171;27;45425;-65
2021/06/07 07:52:13;;;;;;;;;12.25;11.00;;;;;20.81;100.00;102092.59;5078005;27;45365;-65
2021/06/07 07:58:04;;;;;;;;;12.25;12.25;;;;;20.69;100.00;102066.50;5077595;28;45354;-65
2021/06/07 08:00:30;;;;;;;;;12.00;11.25;;;;;20.89;100.00;102095.88;5077886;28;46306;-66
2021/06/07 08:02:58;;;;;;;;;10.00;8.50;;;;;20.93;100.00;102092.16;5077588;27;45299;-66
2021/06/07 08:05:24;;;;;;;;;10.25;10.25;;;;;20.98;100.00;102087.56;5077786;27;45429;-66
2021/06/07 08:07:49;;;;;;;;;10.75;10.25;;;;;21.09;100.00;102089.84;5077991;27;45452;-66
2021/06/07 08:10:15;;;;;;;;;16.25;11.75;;;;;21.10;100.00;102083.59;5077805;27;46160;-65
2021/06/07 08:12:43;;;;;;;;;13.25;13.00;;;;;21.08;100.00;102083.66;5077658;27;45355;-66
2021/06/07 08:15:10;;;;;;;;;12.75;11.00;;;;;21.14;100.00;102094.97;5077789;27;45225;-64
2021/06/07 08:17:35;;;;;;;;;11.00;11.00;;;;;21.14;100.00;102087.88;5077988;27;45276;-66
2021/06/07 08:20:07;;;;;;;;;11.00;10.00;;;;;21.19;100.00;102090.34;5077507;27;47457;-66
2021/06/07 08:22:33;;;;;;;;;12.00;11.00;;;;;21.22;100.00;102090.22;5077648;27;45289;-67
2021/06/07 08:24:58;;;;;;;;;10.25;9.75;;;;;21.24;100.00;102085.75;5076516;27;45339;-66
2021/06/07 08:27:24;;;;;;;;;9.75;9.25;;;;;21.27;100.00;102093.63;5077830;27;45480;-66
2021/06/07 08:29:50;;;;;;;;;10.75;10.00;;;;;21.32;100.00;102092.53;5077471;27;46490;-65
2021/06/07 08:32:18;;;;;;;;;9.75;9.75;;;;;21.27;100.00;102070.56;5077581;28;45344;-66
2021/06/07 08:34:43;;;;;;;;;13.50;11.50;;;;;21.38;100.00;102081.69;5077863;27;45280;-65
2021/06/07 08:37:09;;;;;;;;;12.00;10.25;;;;;21.52;100.00;102083.81;5077459;27;45368;-65
2021/06/07 08:42:56;;;;;;;;;7.00;6.00;;;;;21.80;100.00;102080.06;5077292;28;45312;-66
2021/06/07 08:45:24;;;;;;;;;9.25;8.25;;;;;21.97;100.00;102089.13;5077261;27;45394;-65
2021/06/07 08:47:52;;;;;;;;;10.00;9.00;;;;;22.13;100.00;102084.06;5076265;28;45375;-66
2021/06/07 08:50:21;;;;;;;;;10.00;9.75;;;;;22.26;100.00;102093.28;5077201;27;47208;-66
2021/06/07 08:52:47;;;;;;;;;9.75;9.50;;;;;22.41;100.00;102089.13;5076804;27;45381;-65
2021/06/07 08:55:15;;;;;;;;;10.25;9.25;;;;;22.58;100.00;102083.91;5077096;27;45472;-64
2021/06/07 08:57:44;;;;;;;;;9.00;9.00;;;;;22.73;100.00;102079.72;5077077;27;45422;-66
2021/06/07 09:00:14;;;;;;;;;7.75;7.00;;;;;22.83;100.00;102077.56;5077322;27;45372;-65
2021/06/07 09:02:44;;;;;;;;;12.00;10.00;;;;;22.98;100.00;102084.00;5077192;27;45456;-65
2021/06/07 09:05:11;;;;;;;;;7.25;7.25;;;;;23.06;100.00;102080.06;5077143;27;45291;-66
2021/06/07 09:07:55;;;;;;;;;10.25;8.50;;;;;23.13;100.00;102081.53;5075998;28;45467;-67
2021/06/07 09:10:21;;;;;;;;;8.25;8.25;;;;;23.22;100.00;102077.56;5077265;27;45669;-66
2021/06/07 09:12:51;;;;;;;;;10.00;9.25;;;;;23.35;100.00;102076.09;5076989;27;45591;-66
2021/06/07 09:15:25;;;;;;;;;8.00;6.50;;;;;23.55;100.00;102079.63;5076874;27;45383;-66
2021/06/07 09:17:51;;;;;;;;;5.25;5.00;;;;;23.72;100.00;102079.69;5076782;27;45358;-65
2021/06/07 09:20:19;;;;;;;;;7.50;7.00;;;;;23.96;100.00;102078.50;5076616;27;47135;-65
2021/06/07 09:22:59;;;;;;;;;7.00;7.00;;;;;24.05;100.00;102072.75;5076611;27;45243;-65
2021/06/07 09:25:28;;;;;;;;;10.75;9.00;;;;;24.23;100.00;102076.31;5076685;27;45338;-65
2021/06/07 09:28:05;;;;;;;;;6.25;6.25;;;;;24.39;100.00;102076.41;5075559;28;45381;-66
2021/06/07 09:30:35;;;;;;;;;8.00;8.00;;;;;24.59;100.00;102076.25;5076524;27;46540;-66
2021/06/07 09:33:33;;;;;;;;;9.50;8.50;;;;;24.72;100.00;102080.03;5076443;27;45379;-66
2021/06/07 09:36:14;;;;;;;;;7.50;7.50;;;;;24.83;100.00;102082.13;5076478;27;45287;-66
2021/06/07 09:38:55;;;;;;;;;6.50;6.25;;;;;24.94;100.00;102081.56;5076527;27;45425;-66
2021/06/07 09:41:22;;;;;;;;;5.50;5.00;;;;;25.08;100.00;102076.38;5076646;27;45704;-66
2021/06/07 09:43:52;;;;;;;;;6.00;5.25;;;;;25.33;100.00;102087.44;5076150;27;45442;-66
2021/06/07 09:46:25;;;;;;;;;5.75;5.75;;;;;25.61;100.00;102080.59;5076120;27;45339;-66
2021/06/07 09:49:06;;;;;;;;;6.75;6.25;;;;;25.98;100.00;102087.41;5076307;27;45464;-65
2021/06/07 09:51:38;;;;;;;;;5.00;5.00;;;;;26.46;100.00;102085.53;5076096;27;46657;-65
2021/06/07 09:54:05;;;;;;;;;7.25;6.00;;;;;26.95;100.00;102079.91;5076116;27;45702;-66
2021/06/07 09:56:31;;;;;;;;;4.50;4.00;;;;;27.42;100.00;102068.91;5076402;27;45421;-65
2021/06/07 09:58:57;;;;;;;;;5.00;5.00;;;;;28.01;100.00;102085.63;5076414;27;45391;-65
2021/06/07 10:01:31;;;;;;;;;6.50;6.00;;;;;28.56;100.00;102069.38;5076456;27;46327;-66
2021/06/07 10:03:59;;;;;;;;;4.75;4.25;;;;;29.34;100.00;102076.47;5075747;27;45406;-66
2021/06/07 10:06:35;;;;;;;;;4.00;4.00;;;;;30.34;100.00;102076.25;5077915;27;45528;-66
2021/06/07 10:09:08;;;;;;;;;3.00;2.50;;;;;31.73;100.00;102086.84;5079742;27;45461;-66
2021/06/07 10:11:39;;;;;;;;;3.25;3.00;;;;;33.19;100.00;102067.00;5079518;27;45382;-66
2021/06/07 10:14:09;;;;;;;;;5.50;4.25;;;;;34.68;100.00;102062.34;5079472;27;45498;-67
2021/06/07 10:16:37;;;;;;;;;4.25;4.00;;;;;35.86;100.00;102067.97;5079499;27;45347;-65
2021/06/07 10:19:06;;;;;;;;;3.50;3.50;;;;;36.58;98.15;102066.03;5078318;28;45488;-65
2021/06/07 10:21:32;;;;;;;;;3.00;3.00;;;;;36.71;79.24;102053.72;5079414;27;46431;-66
2021/06/07 10:23:58;;;;;;;;;2.75;2.00;;;;;36.02;72.45;102065.41;5079422;27;45365;-65
2021/06/07 10:26:23;;;;;;;;;3.00;3.00;;;;;35.03;71.62;102066.22;5079472;27;45327;-65
2021/06/07 10:28:55;;;;;;;;;6.00;4.00;;;;;34.18;68.89;102067.97;5079481;27;45446;-65
2021/06/07 10:31:23;;;;;;;;;1.75;1.75;;;;;33.56;73.51;102066.44;5079259;27;47217;-66
2021/06/07 10:34:03;;;;;;;;;3.00;3.00;;;;;33.51;66.66;102063.31;5079044;27;45394;-65
2021/06/07 10:36:33;;;;;;;;;3.75;2.50;;;;;34.10;63.48;102046.09;5079468;27;45296;-66
2021/06/07 10:39:18;;;;;;;;;2.00;2.00;;;;;35.12;60.50;102068.94;5079402;27;45307;-66
2021/06/07 10:41:59;;;;;;;;;1.00;1.00;;;;;35.60;57.73;102065.97;5078854;27;46578;-65
2021/06/07 10:44:39;;;;;;;;;3.00;2.00;;;;;36.03;55.34;102061.69;5079162;27;45453;-66
2021/06/07 10:47:07;;;;;;;;;2.00;2.00;;;;;36.84;51.86;102060.59;5079110;27;45371;-65
2021/06/07 10:49:35;;;;;;;;;3.50;3.50;;;;;37.27;49.75;102057.78;5079349;27;45286;-66
2021/06/07 10:52:25;;;;;;;;;3.00;2.75;;;;;37.32;49.13;102060.84;5078767;27;47410;-66
2021/06/07 10:55:10;;;;;;;;;3.00;3.00;;;;;37.46;51.44;102055.81;5056601;28;45393;-65
2021/06/07 10:57:38;;;;;;;;;3.50;3.50;;;;;37.58;48.00;102055.34;5056610;28;45398;-65
2021/06/07 11:00:09;;;;;;;;;2.25;2.00;;;;;37.53;48.53;102044.06;5056705;28;45361;-66
2021/06/07 11:02:39;;;;;;;;;3.00;3.00;;;;;37.39;48.10;102028.38;5056201;28;47118;-66
2021/06/07 11:05:13;;;;;;;;;3.25;3.25;;;;;37.46;48.13;102050.34;5056637;28;45689;-65
2021/06/07 11:07:43;;;;;;;;;3.75;3.00;;;;;37.40;47.90;102046.41;5056340;28;45397;-66
2021/06/07 11:10:23;;;;;;;;;2.75;2.75;;;;;37.50;47.71;102055.28;5056469;28;45391;-66
2021/06/07 11:12:55;;;;;;;;;4.50;3.75;;;;;37.38;49.83;102043.88;5055974;28;46407;-66
2021/06/07 11:15:24;;;;;;;;;4.00;3.00;;;;;37.29;47.26;102046.72;5056013;28;45453;-66
2021/06/07 11:17:51;;;;;;;;;5.00;3.00;;;;;37.19;46.36;102055.00;5055650;28;45378;-66
2021/06/07 11:20:34;;;;;;;;;3.00;3.00;;;;;36.96;47.44;102045.72;5056361;28;45576;-67
2021/06/07 11:25:55;;;;;;;;;28.50;27.25;;;;;36.60;44.77;102047.66;5056010;28;45339;-67
2021/06/07 11:28:40;;;;;;;;;4.00;4.00;;;;;36.50;45.72;102043.19;5056053;28;45413;-65
2021/06/07 11:31:15;;;;;;;;;5.50;5.00;;;;;36.49;44.80;102043.38;5060352;28;45325;-66
2021/06/07 11:33:57;;;;;;;;;2.00;2.00;;;;;36.47;44.58;102039.94;5078011;27;46525;-67
2021/06/07 11:36:38;;;;;;;;;4.75;4.00;;;;;36.69;44.98;102033.97;5078317;27;45371;-68
2021/06/07 11:42:28;;;;;;;;;4.00;4.00;;;;;36.62;41.97;102038.31;5078533;28;45295;-67
2021/06/07 11:45:03;;;;;;;;;6.00;5.00;;;;;36.80;42.54;102038.31;5078171;27;45758;-67
2021/06/07 11:47:41;;;;;;;;;8.00;6.75;;;;;37.13;41.75;102036.59;5077763;27;45475;-67
2021/06/07 11:50:11;;;;;;;;;7.75;6.25;;;;;37.50;41.88;102035.38;5078090;27;45323;-67
2021/06/07 11:52:36;;;;;;;;;5.75;5.25;;;;;37.34;40.46;102025.25;5078264;27;45462;-67
2021/06/07 11:58:26;;;;;;;;;5.00;5.00;;;;;37.68;39.71;102022.47;5077801;28;45467;-66
2021/06/07 12:00:57;;;;;;;;;6.50;5.00;;;;;37.88;38.48;102025.75;5078040;27;45370;-66
2021/06/07 12:03:30;;;;;;;;;4.75;4.25;;;;;37.87;36.94;102008.53;5078005;27;45409;-66
2021/06/07 12:05:57;;;;;;;;;5.00;4.50;;;;;38.05;38.50;102023.88;5077572;27;47162;-66
2021/06/07 12:08:24;;;;;;;;;3.00;3.00;;;;;38.33;37.44;102022.53;5077651;27;45304;-66